.
WxDataArchive / Data Records for 2007-07-13
2007-07-12 July 2007 2007-07-14

Data Records for Friday, 13 July 2007

Time	Temp	Chill	HIndex	Humid	Dewpt	 Wind 	HiWind	WindDir	Rain 	Barom 
-----	----	-----	------	-----	-----	------	------	-------	-----	----- 
00:00	61.0	61.0	61.0	92	58.7	0	0	---	0.00	29.900 
00:05	61.0	61.0	61.0	92	58.7	0	0	---	0.00	29.899 
00:10	61.0	61.0	61.0	92	58.7	0	0	---	0.00	29.899 
00:15	60.9	60.9	60.9	92	58.6	0	0	---	0.00	29.899 
00:20	60.7	60.7	60.7	92	58.4	0	0	---	0.00	29.899 
00:25	60.5	60.5	60.5	92	58.2	0	0	---	0.00	29.899 
00:30	60.5	60.5	60.5	93	58.5	0	0	---	0.00	29.898 
00:35	60.4	60.4	60.4	93	58.4	0	0	---	0.01	29.900 
00:40	60.1	60.1	60.1	93	58.1	0	0	---	0.00	29.900 
00:45	59.9	59.9	59.9	93	57.9	0	0	---	0.00	29.901 
00:50	59.8	59.8	59.8	93	57.8	0	0	---	0.00	29.901 
00:55	59.5	59.5	59.5	93	57.5	0	0	---	0.00	29.902 
01:00	59.3	59.3	59.3	94	57.6	0	0	---	0.00	29.902 
01:05	59.3	59.3	59.3	94	57.6	0	0	---	0.00	29.901 
01:10	59.3	59.3	59.3	94	57.6	0	0	---	0.00	29.901 
01:15	59.3	59.3	59.3	94	57.6	0	0	---	0.00	29.901 
01:20	59.3	59.3	59.3	95	57.9	0	0	---	0.00	29.901 
01:25	59.2	59.2	59.2	95	57.8	0	0	---	0.00	29.900 
01:30	59.0	59.0	59.0	95	57.6	0	0	---	0.00	29.901 
01:35	58.9	58.9	58.9	95	57.5	0	0	---	0.00	29.900 
01:40	58.7	58.7	58.7	95	57.3	0	0	---	0.00	29.901 
01:45	58.7	58.7	58.7	95	57.3	0	0	---	0.00	29.900 
01:50	58.6	58.6	58.6	95	57.2	0	0	---	0.00	29.900 
01:55	58.4	58.4	58.4	95	57.0	0	0	---	0.00	29.900 
02:00	58.4	58.4	58.4	95	57.0	0	0	---	0.00	29.901 
02:05	58.4	58.4	58.4	95	57.0	0	0	---	0.00	29.902 
02:10	58.3	58.3	58.3	95	56.9	0	0	---	0.00	29.905 
02:15	58.1	58.1	58.1	95	56.7	0	0	---	0.00	29.904 
02:20	58.0	58.0	58.0	95	56.6	0	0	---	0.00	29.902 
02:25	57.8	57.8	57.8	96	56.7	0	0	---	0.00	29.901 
02:30	57.8	57.8	57.8	96	56.7	0	0	---	0.00	29.901 
02:35	57.6	57.6	57.6	96	56.5	0	0	---	0.00	29.900 
02:40	57.5	57.5	57.5	96	56.4	0	0	---	0.00	29.900 
02:45	57.3	57.3	57.3	96	56.2	0	0	---	0.00	29.900 
02:50	57.2	57.2	57.2	96	56.1	0	0	---	0.00	29.899 
02:55	57.2	57.2	57.2	96	56.1	0	0	---	0.00	29.899 
03:00	57.0	57.0	57.0	96	55.9	0	0	---	0.00	29.899 
03:05	56.9	56.9	56.9	96	55.8	0	0	---	0.00	29.898 
03:10	56.7	56.7	56.7	96	55.6	0	0	---	0.00	29.897 
03:15	56.7	56.7	56.7	96	55.6	0	0	---	0.00	29.897 
03:20	56.6	56.6	56.6	96	55.5	0	0	---	0.00	29.898 
03:25	56.5	56.5	56.5	96	55.4	0	0	---	0.00	29.899 
03:30	56.3	56.3	56.3	96	55.2	0	0	---	0.00	29.900 
03:35	56.2	56.2	56.2	96	55.1	0	0	---	0.00	29.899 
03:40	56.0	56.0	56.0	96	54.9	0	0	---	0.00	29.900 
03:45	55.9	55.9	55.9	96	54.8	0	0	---	0.00	29.902 
03:50	55.9	55.9	55.9	96	54.8	0	0	---	0.00	29.907 
03:55	55.7	55.7	55.7	96	54.6	0	0	---	0.00	29.907 
04:00	55.7	55.7	55.7	96	54.6	0	0	---	0.00	29.907 
04:05	55.6	55.6	55.6	96	54.5	0	0	---	0.00	29.907 
04:10	55.4	55.4	55.4	96	54.3	0	0	---	0.00	29.906 
04:15	55.4	55.4	55.4	96	54.3	0	0	---	0.00	29.907 
04:20	55.3	55.3	55.3	96	54.2	0	0	---	0.00	29.909 
04:25	55.1	55.1	55.1	96	54.0	0	0	---	0.00	29.909 
04:30	55.0	55.0	55.0	96	53.9	0	0	---	0.00	29.911 
04:35	54.8	54.8	54.8	96	53.7	0	0	---	0.00	29.912 
04:40	54.8	54.8	54.8	96	53.7	0	0	---	0.00	29.911 
04:45	54.8	54.8	54.8	96	53.7	0	0	---	0.00	29.915 
04:50	54.7	54.7	54.7	96	53.6	0	0	---	0.00	29.913 
04:55	54.7	54.7	54.7	96	53.6	0	0	---	0.00	29.913 
05:00	54.7	54.7	54.7	96	53.6	0	0	---	0.00	29.914 
05:05	54.5	54.5	54.5	96	53.4	0	0	---	0.00	29.914 
05:10	54.5	54.5	54.5	96	53.4	0	0	---	0.00	29.918 
05:15	54.4	54.4	54.4	96	53.3	0	0	---	0.00	29.919 
05:20	54.2	54.2	54.2	96	53.1	0	0	---	0.00	29.921 
05:25	54.1	54.1	54.1	96	53.0	0	0	---	0.00	29.920 
05:30	54.1	54.1	54.1	96	53.0	0	0	---	0.00	29.921 
05:35	54.1	54.1	54.1	97	53.3	0	0	---	0.00	29.923 
05:40	54.1	54.1	54.1	97	53.3	0	0	---	0.00	29.925 
05:45	54.1	54.1	54.1	97	53.3	0	0	---	0.00	29.924 
05:50	54.2	54.2	54.2	97	53.4	0	0	---	0.00	29.924 
05:55	54.2	54.2	54.2	97	53.4	0	0	---	0.00	29.927 
06:00	54.4	54.4	54.4	97	53.6	0	0	---	0.00	29.927 
06:05	54.7	54.7	54.7	97	53.9	0	0	---	0.00	29.931 
06:10	54.8	54.8	54.8	97	54.0	0	0	---	0.00	29.931 
06:15	55.0	55.0	55.0	97	54.2	0	0	---	0.00	29.929 
06:20	55.3	55.3	55.3	97	54.5	0	0	---	0.00	29.929 
06:25	55.7	55.7	55.7	97	54.9	0	0	---	0.00	29.928 
06:30	56.3	56.3	56.3	97	55.5	0	0	---	0.00	29.927 
06:35	57.0	57.0	57.0	97	56.2	0	0	---	0.00	29.928 
06:40	57.5	57.5	57.5	98	56.9	0	0	---	0.00	29.930 
06:45	58.0	58.0	58.0	98	57.4	0	0	---	0.00	29.931 
06:50	58.4	58.4	58.4	98	57.8	0	0	---	0.00	29.933 
06:55	59.0	59.0	59.0	98	58.4	0	0	---	0.00	29.935 
07:00	59.5	59.5	59.5	98	58.9	0	0	---	0.00	29.938 
07:05	59.6	59.6	59.6	97	58.7	0	0	---	0.00	29.939 
07:10	59.8	59.8	59.8	97	58.9	0	1	292	0.00	29.940 
07:15	60.1	60.1	60.1	97	59.2	0	0	---	0.00	29.942 
07:20	60.4	60.4	60.4	96	59.3	0	1	292	0.00	29.947 
07:25	60.9	60.9	60.9	91	58.3	0	0	---	0.00	29.948 
07:30	61.8	61.8	61.8	89	58.5	0	0	---	0.00	29.950 
07:35	62.7	62.7	62.7	86	58.4	0	1	292	0.00	29.952 
07:40	63.5	63.5	63.5	84	58.6	0	0	---	0.00	29.952 
07:45	64.3	64.3	64.3	78	57.3	0	2	292	0.00	29.950 
07:50	65.0	65.0	65.0	75	56.9	0	2	292	0.00	29.951 
07:55	65.5	65.5	65.5	71	55.8	0	1	292	0.00	29.952 
08:00	65.8	65.8	65.8	68	54.9	0	3	292	0.00	29.955 
08:05	66.1	66.1	66.1	63	53.1	0	2	270	0.00	29.959 
08:10	66.9	66.9	66.9	64	54.3	0	1	270	0.00	29.961 
08:15	67.8	67.8	67.8	55	51.0	1	4	135	0.00	29.962 
08:20	68.4	68.4	68.4	60	54.0	0	2	112	0.00	29.962 
08:25	68.4	68.4	68.4	61	54.4	0	2	112	0.00	29.962 
08:30	69.1	69.1	69.1	55	52.2	1	4	112	0.00	29.960 
08:35	69.3	69.3	69.3	56	52.9	0	2	112	0.00	29.962 
08:40	69.6	69.6	69.6	54	52.2	1	3	112	0.00	29.962 
08:45	69.8	69.8	69.8	52	51.4	2	4	90	0.00	29.957 
08:50	69.6	69.6	69.6	50	50.1	2	5	45	0.00	29.961 
08:55	69.6	69.6	69.6	52	51.2	2	4	68	0.00	29.962 
09:00	69.9	69.9	69.9	52	51.5	1	3	68	0.00	29.962 
09:05	69.9	69.9	69.9	50	50.4	2	5	90	0.00	29.967 
09:10	70.3	70.3	70.3	49	50.2	1	4	90	0.00	29.967 
09:15	70.8	70.8	70.8	47	49.6	2	4	90	0.00	29.966 
09:20	70.4	70.4	70.4	48	49.8	2	5	112	0.00	29.966 
09:25	70.1	70.1	70.1	48	49.5	3	6	90	0.00	29.967 
09:30	70.4	70.4	70.4	48	49.8	1	4	112	0.00	29.967 
09:35	71.1	71.1	71.1	50	51.5	1	3	112	0.00	29.966 
09:40	71.8	71.8	71.8	46	49.9	0	3	112	0.00	29.966 
09:45	72.7	72.7	72.7	46	50.7	1	3	112	0.00	29.964 
09:50	72.7	72.7	72.7	52	54.0	1	4	292	0.00	29.964 
09:55	73.0	73.0	73.0	46	51.0	2	4	90	0.00	29.964 
10:00	73.0	73.0	73.0	44	49.8	1	3	90	0.00	29.964 
10:05	73.2	73.2	73.2	45	50.6	0	2	90	0.00	29.968 
10:10	73.5	73.5	73.5	45	50.8	1	3	90	0.00	29.968 
10:15	74.2	74.2	74.2	43	50.2	0	3	90	0.00	29.967 
10:20	74.4	74.4	74.4	46	52.3	0	2	90	0.00	29.969 
10:25	74.6	74.6	74.6	40	48.7	1	3	68	0.00	29.971 
10:30	74.7	74.7	74.7	45	51.9	0	1	68	0.00	29.971 
10:35	74.6	74.6	74.6	41	49.3	1	3	292	0.00	29.968 
10:40	74.6	74.6	74.6	43	50.6	2	5	90	0.00	29.967 
10:45	74.4	74.4	74.4	44	51.0	2	4	90	0.00	29.969 
10:50	74.9	74.9	74.9	46	52.7	1	4	112	0.00	29.970 
10:55	75.4	75.4	77.7	45	52.6	2	4	112	0.00	29.970 
11:00	75.6	75.6	77.7	42	50.9	1	4	270	0.00	29.972 
11:05	75.6	75.6	77.7	40	49.6	1	3	270	0.00	29.973 
11:10	75.4	75.4	77.6	41	50.0	1	2	270	0.00	29.971 
11:15	75.4	75.4	77.6	39	48.7	1	3	270	0.00	29.969 
11:20	75.4	75.4	77.6	41	50.0	1	2	292	0.00	29.968 
11:25	75.8	75.8	77.7	40	49.7	1	3	315	0.00	29.968 
11:30	76.0	76.0	77.8	39	49.2	1	3	315	0.00	29.969 
11:35	76.8	76.8	78.2	41	51.3	1	4	0	0.00	29.965 
11:40	77.4	77.4	78.4	40	51.2	1	3	270	0.00	29.966 
11:45	77.7	77.7	78.5	39	50.7	1	3	225	0.00	29.965 
11:50	76.5	76.5	77.9	37	48.3	1	4	248	0.00	29.965 
11:55	74.6	74.6	74.6	39	48.0	1	2	315	0.00	29.967 
12:00	74.6	74.6	74.6	39	48.0	1	3	292	0.00	29.967 
12:05	74.4	74.4	74.4	41	49.1	0	2	292	0.00	29.970 
12:10	74.0	74.0	74.0	41	48.8	1	3	315	0.00	29.970 
12:15	73.9	73.9	73.9	40	48.0	1	3	315	0.00	29.969 
12:20	74.2	74.2	74.2	41	49.0	1	2	248	0.00	29.967 
12:25	75.8	75.8	77.7	39	49.1	2	4	315	0.00	29.966 
12:30	76.8	76.8	78.0	37	48.5	1	3	338	0.00	29.962 
12:35	76.5	76.5	77.9	37	48.3	1	3	315	0.00	29.961 
12:40	75.3	75.3	77.5	37	47.2	2	3	270	0.00	29.967 
12:45	74.6	74.6	74.6	39	48.0	1	4	315	0.00	29.963 
12:50	74.0	74.0	74.0	41	48.8	1	4	338	0.00	29.963 
12:55	74.4	74.4	74.4	42	49.8	1	3	270	0.00	29.959 
13:00	74.4	74.4	74.4	39	47.8	1	6	270	0.00	29.955 
13:05	74.2	74.2	74.2	40	48.3	1	3	315	0.00	29.958 
13:10	75.4	75.4	77.6	40	49.4	1	4	315	0.00	29.958 
13:15	76.7	76.7	77.9	36	47.7	2	4	270	0.00	29.954 
13:20	77.0	77.0	77.9	33	45.7	2	3	315	0.00	29.953 
13:25	77.6	77.6	78.3	36	48.5	1	6	270	0.00	29.952 
13:30	77.9	77.9	78.4	35	48.0	2	6	270	0.00	29.950 
13:35	77.0	77.0	77.9	34	46.5	2	4	315	0.00	29.953 
13:40	76.1	76.1	77.5	33	44.9	2	4	270	0.00	29.952 
13:45	75.8	75.8	77.5	35	46.2	0	2	292	0.00	29.952 
13:50	76.1	76.1	77.6	34	45.7	1	3	270	0.00	29.952 
13:55	76.1	76.1	77.6	34	45.7	2	4	315	0.00	29.952 
14:00	76.1	76.1	77.6	35	46.4	1	5	338	0.00	29.951 
14:05	75.8	75.8	77.5	34	45.4	2	5	315	0.00	29.952 
14:10	75.6	75.6	77.5	36	46.7	1	3	315	0.00	29.949 
14:15	76.0	76.0	77.6	36	47.1	1	5	292	0.00	29.951 
14:20	76.3	76.3	77.7	35	46.6	1	3	315	0.00	29.949 
14:25	77.0	77.0	78.0	35	47.2	1	5	270	0.00	29.944 
14:30	76.3	76.3	77.7	36	47.4	1	3	292	0.00	29.944 
14:35	75.6	75.6	77.6	37	47.5	1	3	292	0.00	29.944 
14:40	76.7	76.7	77.9	36	47.7	1	5	270	0.00	29.944 
14:45	76.8	76.8	78.0	38	49.2	1	3	292	0.00	29.942 
14:50	76.7	76.7	78.1	39	49.9	2	6	270	0.00	29.942 
14:55	76.8	76.8	78.2	41	51.3	1	3	315	0.00	29.942 
15:00	77.7	77.7	78.5	39	50.7	1	4	292	0.00	29.940 
15:05	78.6	78.6	78.9	38	50.8	0	2	112	0.00	29.939 
15:10	79.2	79.2	79.3	38	51.4	1	4	68	0.00	29.937 
15:15	78.6	78.6	78.8	36	49.4	1	5	292	0.00	29.936 
15:20	77.4	77.4	78.4	39	50.5	1	3	248	0.00	29.936 
15:25	77.2	77.2	78.3	40	51.0	1	4	292	0.00	29.936 
15:30	77.6	77.6	78.5	39	50.7	1	4	45	0.00	29.934 
15:35	77.0	77.0	78.2	39	50.1	1	3	292	0.00	29.936 
15:40	76.8	76.8	78.0	38	49.2	1	2	315	0.00	29.937 
15:45	75.8	75.8	77.5	35	46.2	2	4	315	0.00	29.937 
15:50	75.4	75.4	77.4	36	46.6	1	3	315	0.00	29.939 
15:55	75.4	75.4	77.5	38	48.0	1	3	315	0.00	29.932 
16:00	76.3	76.3	77.7	36	47.4	1	4	270	0.00	29.927 
16:05	76.7	76.7	77.9	36	47.7	2	4	315	0.00	29.925 
16:10	76.7	76.7	77.9	36	47.7	1	4	292	0.00	29.924 
16:15	77.0	77.0	78.0	35	47.2	1	3	315	0.00	29.924 
16:20	76.8	76.8	77.9	36	47.8	2	5	315	0.00	29.922 
16:25	76.7	76.7	77.9	35	47.0	2	4	248	0.00	29.921 
16:30	77.0	77.0	78.1	37	48.7	1	4	270	0.00	29.922 
16:35	77.0	77.0	77.9	34	46.5	1	4	315	0.00	29.921 
16:40	77.0	77.0	77.9	34	46.5	1	3	315	0.00	29.920 
16:45	77.2	77.2	77.8	31	44.2	1	4	225	0.00	29.919 
16:50	77.2	77.2	77.9	32	45.0	2	4	270	0.00	29.921 
16:55	77.0	77.0	77.7	31	44.0	1	4	338	0.00	29.918 
17:00	76.7	76.7	77.8	34	46.2	1	3	315	0.00	29.915 
17:05	77.0	77.0	77.8	32	44.9	1	3	315	0.00	29.916 
17:10	77.0	77.0	77.9	34	46.5	2	5	270	0.00	29.917 
17:15	76.8	76.8	77.7	32	44.7	1	3	315	0.00	29.918 
17:20	76.5	76.5	77.7	34	46.0	1	3	315	0.00	29.919 
17:25	76.5	76.5	77.7	34	46.0	1	3	315	0.00	29.917 
17:30	76.3	76.3	77.7	35	46.6	2	3	270	0.00	29.917 
17:35	76.7	76.7	77.9	36	47.7	1	5	270	0.00	29.920 
17:40	76.3	76.3	77.7	35	46.6	2	4	315	0.00	29.920 
17:45	76.0	76.0	77.7	37	47.8	1	3	270	0.00	29.916 
17:50	75.8	75.8	77.6	37	47.7	1	3	270	0.00	29.915 
17:55	75.3	75.3	77.5	37	47.2	1	4	315	0.00	29.915 
18:00	75.1	75.1	77.3	36	46.3	1	4	315	0.00	29.915 
18:05	75.4	75.4	77.4	35	45.8	2	5	315	0.00	29.912 
18:10	75.4	75.4	77.4	36	46.6	2	6	292	0.00	29.911 
18:15	75.3	75.3	77.4	36	46.5	2	4	315	0.00	29.909 
18:20	74.9	74.9	74.9	37	46.9	2	4	270	0.00	29.907 
18:25	75.1	75.1	77.4	38	47.7	1	3	315	0.00	29.906 
18:30	75.3	75.3	77.5	38	47.9	2	4	315	0.00	29.907 
18:35	75.3	75.3	77.5	38	47.9	1	5	292	0.00	29.906 
18:40	75.4	75.4	77.5	38	48.0	0	2	292	0.00	29.906 
18:45	75.6	75.6	77.6	38	48.2	1	3	270	0.00	29.906 
18:50	75.4	75.4	77.5	38	48.0	1	3	315	0.00	29.906 
18:55	75.3	75.3	77.4	36	46.5	1	3	292	0.00	29.908 
19:00	75.1	75.1	77.3	36	46.3	1	4	270	0.00	29.908 
19:05	74.6	74.6	74.6	35	45.1	2	4	248	0.00	29.905 
19:10	74.2	74.2	74.2	36	45.5	1	2	248	0.00	29.903 
19:15	73.9	73.9	73.9	36	45.2	1	2	338	0.00	29.902 
19:20	73.7	73.7	73.7	37	45.8	0	2	338	0.00	29.903 
19:25	73.3	73.3	73.3	36	44.7	1	4	315	0.00	29.903 
19:30	73.0	73.0	73.0	37	45.2	1	2	315	0.00	29.904 
19:35	72.8	72.8	72.8	38	45.7	0	1	315	0.00	29.906 
19:40	72.5	72.5	72.5	39	46.1	0	1	315	0.00	29.908 
19:45	72.1	72.1	72.1	40	46.4	0	1	315	0.00	29.906 
19:50	72.0	72.0	72.0	40	46.3	0	1	315	0.00	29.906 
19:55	71.8	71.8	71.8	40	46.2	0	1	315	0.00	29.905 
20:00	71.5	71.5	71.5	41	46.5	0	1	315	0.00	29.906 
20:05	71.1	71.1	71.1	42	46.8	0	0	---	0.00	29.904 
20:10	70.8	70.8	70.8	43	47.2	0	0	---	0.00	29.905 
20:15	70.3	70.3	70.3	44	47.3	0	1	315	0.00	29.906 
20:20	69.9	69.9	69.9	44	47.0	0	0	---	0.00	29.907 
20:25	69.6	69.6	69.6	44	46.7	0	0	---	0.00	29.907 
20:30	69.3	69.3	69.3	47	48.2	0	0	---	0.00	29.909 
20:35	68.8	68.8	68.8	46	47.2	0	0	---	0.00	29.912 
20:40	68.3	68.3	68.3	47	47.3	0	0	---	0.00	29.913 
20:45	67.8	67.8	67.8	48	47.4	0	0	---	0.00	29.915 
20:50	67.3	67.3	67.3	49	47.5	0	0	---	0.00	29.918 
20:55	66.8	66.8	66.8	51	48.1	0	0	---	0.00	29.918 
21:00	66.4	66.4	66.4	50	47.2	0	0	---	0.00	29.919 
21:05	66.1	66.1	66.1	52	48.0	0	0	---	0.00	29.919 
21:10	65.6	65.6	65.6	52	47.5	0	0	---	0.00	29.918 
21:15	65.3	65.3	65.3	53	47.7	0	0	---	0.00	29.918 
21:20	65.0	65.0	65.0	53	47.4	0	0	---	0.00	29.919 
21:25	64.5	64.5	64.5	54	47.5	0	0	---	0.00	29.919 
21:30	64.2	64.2	64.2	56	48.2	0	0	---	0.00	29.920 
21:35	63.9	63.9	63.9	57	48.4	0	0	---	0.00	29.920 
21:40	63.5	63.5	63.5	58	48.5	0	0	---	0.00	29.919 
21:45	63.2	63.2	63.2	59	48.6	0	0	---	0.00	29.919 
21:50	62.9	62.9	62.9	59	48.3	0	0	---	0.00	29.919 
21:55	62.6	62.6	62.6	60	48.5	0	0	---	0.00	29.919 
22:00	62.3	62.3	62.3	61	48.7	0	0	---	0.00	29.921 
22:05	62.0	62.0	62.0	62	48.8	0	0	---	0.00	29.917 
22:10	61.8	61.8	61.8	63	49.1	0	0	---	0.00	29.917 
22:15	61.5	61.5	61.5	63	48.8	0	0	---	0.00	29.917 
22:20	61.3	61.3	61.3	64	49.0	0	0	---	0.00	29.919 
22:25	61.0	61.0	61.0	65	49.1	0	0	---	0.00	29.919 
22:30	60.9	60.9	60.9	66	49.5	0	0	---	0.00	29.920 
22:35	60.5	60.5	60.5	66	49.1	0	0	---	0.00	29.920 
22:40	60.4	60.4	60.4	68	49.8	0	0	---	0.00	29.919 
22:45	60.1	60.1	60.1	69	49.9	0	0	---	0.00	29.919 
22:50	59.9	59.9	59.9	71	50.5	0	0	---	0.00	29.918 
22:55	59.6	59.6	59.6	71	50.2	0	0	---	0.00	29.916 
23:00	59.3	59.3	59.3	71	49.9	0	0	---	0.00	29.914 
23:05	59.2	59.2	59.2	72	50.2	0	0	---	0.00	29.914 
23:10	59.0	59.0	59.0	73	50.4	0	0	---	0.00	29.914 
23:15	58.9	58.9	58.9	73	50.3	0	0	---	0.00	29.913 
23:20	58.6	58.6	58.6	73	50.0	0	0	---	0.00	29.913 
23:25	58.4	58.4	58.4	74	50.1	0	0	---	0.00	29.914 
23:30	58.3	58.3	58.3	74	50.0	0	0	---	0.00	29.912 
23:35	58.1	58.1	58.1	74	49.9	0	0	---	0.00	29.910 
23:40	58.0	58.0	58.0	75	50.1	0	0	---	0.00	29.909 
23:45	57.8	57.8	57.8	76	50.3	0	0	---	0.00	29.909 
23:50	57.6	57.6	57.6	76	50.1	0	0	---	0.00	29.906 
23:55	57.5	57.5	57.5	77	50.3	0	0	---	0.00	29.906 

CoCoRaHS
IN-AL-39
A2 Web Hosting
Creative Commons License
GoDaddy
Look for:

loaded 2017-10-17 09:13:12 • last modified 2010-11-18 10:43:29
Privacy PolicyDisclaimer
• wx.awcolley.com is powered by PmWiki v.2002016 •
• all content (unless otherwise noted) © 2017 A W Colley